Bruce L. Hahn — WDH6451 — position and weather

sailwx.info

Track history (hours):
 
Tides and Currents Weather Stations Pressure Air Temp Water Temp Dewpoint Dewpoint Depression Visibility Wind Speed Wind Dir Waves Ship Positions

Bruce L. Hahn

Owner: Marquette Transportation Co. LLC, Paducah, KY. More information available from US FCC via Universal Licensing System and Coast Guard Vessel Documentation Center.

Last reported at 2017-Sep-18 11:11 UTC. Time now 2017-Sep-26 11:07 UTC.
Position N 32°48' W 091°09'.

Length 52 m; draft 3 m.

Type: Ship (hazmat cat B). MMSI: 367638090.

Date/timePositionNaut miles runAvg speedWind from/ knotsBaromVisibWave heightAir tempDewpointWater temp
2017-Sep-18 11:11N 32°48' W 091°09'1 4.1
2017-Sep-18 11:00N 32°47' W 091°09'2 4.3
2017-Sep-18 10:30N 32°45' W 091°09'6 2.1
2017-Sep-18 07:50N 32°43' W 091°03'5 4.5
2017-Sep-18 06:50N 32°40' W 091°07'1 3.7
2017-Sep-18 06:30N 32°40' W 091°08'2 4.0
2017-Sep-18 06:00N 32°38' W 091°09'2 4.7
2017-Sep-18 05:30N 32°36' W 091°08'2 4.6
2017-Sep-18 05:00N 32°34' W 091°06'2 4.3
2017-Sep-18 04:30N 32°32' W 091°06'3 5.0
2017-Sep-18 04:00N 32°29' W 091°07'2 4.9
2017-Sep-18 03:30N 32°27' W 091°05'2 4.9
2017-Sep-18 03:00N 32°26' W 091°03'2 4.6
2017-Sep-18 02:30N 32°25' W 091°00'2 3.9
2017-Sep-18 02:00N 32°23' W 090°60'2 4.3
2017-Sep-18 01:30N 32°21' W 090°60'2 4.9
2017-Sep-18 01:00N 32°21' W 090°57'2 4.3
2017-Sep-18 00:30N 32°20' W 090°54'2 3.9
2017-Sep-18 00:00N 32°19' W 090°55'3 5.0
2017-Sep-17 23:30N 32°17' W 090°57'2 4.0
2017-Sep-17 23:00N 32°15' W 090°58'2 4.4
2017-Sep-17 22:30N 32°13' W 090°59'2 4.7
2017-Sep-17 22:00N 32°11' W 090°60'2 4.4
2017-Sep-17 21:30N 32°09' W 091°00'2 4.5
2017-Sep-17 21:00N 32°07' W 091°02'3 4.6
2017-Sep-17 20:18N 32°08' W 091°06'1 4.2
2017-Sep-17 20:00N 32°07' W 091°07'5 3.2
2017-Sep-17 18:36N 32°04' W 091°03'0 4.3
2017-Sep-17 18:30N 32°03' W 091°03'2 5.0
2017-Sep-17 18:00N 32°01' W 091°05'6 4.5
2017-Sep-17 16:41N 31°58' W 091°11'  
2017-Sep-15 03:49N 29°56' W 090°20'  
2017-Sep-12 18:48N 31°59' W 091°10'3 8.8
2017-Sep-12 18:28N 31°59' W 091°07'7 7.1
2017-Sep-12 17:28N 32°06' W 091°06'2 4.5
2017-Sep-12 16:58N 32°08' W 091°04'3 7.5
2017-Sep-12 16:30N 32°09' W 091°00'5 9.5
2017-Sep-12 16:00N 32°14' W 090°59'5 9.1
2017-Sep-12 15:30N 32°17' W 090°56'3 6.8
2017-Sep-12 15:00N 32°21' W 090°55'4 8.5
2017-Sep-12 14:31N 32°21' W 090°60'4 7.7
2017-Sep-12 14:00N 32°25' W 090°60'4 8.7
2017-Sep-12 13:30N 32°27' W 091°05'4 7.9
2017-Sep-12 13:00N 32°30' W 091°07'4 8.1
2017-Sep-12 12:30N 32°34' W 091°07'4 8.2
2017-Sep-12 12:00N 32°38' W 091°09'7 3.9
2017-Sep-12 10:17N 32°45' W 091°09'  
Track history (hours):
 
Tides and Currents Weather Stations Pressure Air Temp Water Temp Dewpoint Dewpoint Depression Visibility Wind Speed Wind Dir Waves Ship Positions

Bruce L. Hahn

Owner: Marquette Transportation Co. LLC, Paducah, KY. More information available from US FCC via Universal Licensing System and Coast Guard Vessel Documentation Center.

Last reported at 2017-Sep-18 11:11 UTC. Time now 2017-Sep-26 11:07 UTC.
Position N 32°48' W 091°09'.

Length 52 m; draft 3 m.

Type: Ship (hazmat cat B). MMSI: 367638090.

Date/timePositionNaut miles runAvg speedWind from/ knotsBaromVisibWave heightAir tempDewpointWater temp
2017-Sep-18 11:11N 32°48' W 091°09'1 4.1
2017-Sep-18 11:00N 32°47' W 091°09'2 4.3
2017-Sep-18 10:30N 32°45' W 091°09'6 2.1
2017-Sep-18 07:50N 32°43' W 091°03'5 4.5
2017-Sep-18 06:50N 32°40' W 091°07'1 3.7
2017-Sep-18 06:30N 32°40' W 091°08'2 4.0
2017-Sep-18 06:00N 32°38' W 091°09'2 4.7
2017-Sep-18 05:30N 32°36' W 091°08'2 4.6
2017-Sep-18 05:00N 32°34' W 091°06'2 4.3
2017-Sep-18 04:30N 32°32' W 091°06'3 5.0
2017-Sep-18 04:00N 32°29' W 091°07'2 4.9
2017-Sep-18 03:30N 32°27' W 091°05'2 4.9
2017-Sep-18 03:00N 32°26' W 091°03'2 4.6
2017-Sep-18 02:30N 32°25' W 091°00'2 3.9
2017-Sep-18 02:00N 32°23' W 090°60'2 4.3
2017-Sep-18 01:30N 32°21' W 090°60'2 4.9
2017-Sep-18 01:00N 32°21' W 090°57'2 4.3
2017-Sep-18 00:30N 32°20' W 090°54'2 3.9
2017-Sep-18 00:00N 32°19' W 090°55'3 5.0
2017-Sep-17 23:30N 32°17' W 090°57'2 4.0
2017-Sep-17 23:00N 32°15' W 090°58'2 4.4
2017-Sep-17 22:30N 32°13' W 090°59'2 4.7
2017-Sep-17 22:00N 32°11' W 090°60'2 4.4
2017-Sep-17 21:30N 32°09' W 091°00'2 4.5
2017-Sep-17 21:00N 32°07' W 091°02'3 4.6
2017-Sep-17 20:18N 32°08' W 091°06'1 4.2
2017-Sep-17 20:00N 32°07' W 091°07'5 3.2
2017-Sep-17 18:36N 32°04' W 091°03'0 4.3
2017-Sep-17 18:30N 32°03' W 091°03'2 5.0
2017-Sep-17 18:00N 32°01' W 091°05'6 4.5
2017-Sep-17 16:41N 31°58' W 091°11'  
2017-Sep-15 03:49N 29°56' W 090°20'  
2017-Sep-12 18:48N 31°59' W 091°10'3 8.8
2017-Sep-12 18:28N 31°59' W 091°07'7 7.1
2017-Sep-12 17:28N 32°06' W 091°06'2 4.5
2017-Sep-12 16:58N 32°08' W 091°04'3 7.5
2017-Sep-12 16:30N 32°09' W 091°00'5 9.5
2017-Sep-12 16:00N 32°14' W 090°59'5 9.1
2017-Sep-12 15:30N 32°17' W 090°56'3 6.8
2017-Sep-12 15:00N 32°21' W 090°55'4 8.5
2017-Sep-12 14:31N 32°21' W 090°60'4 7.7
2017-Sep-12 14:00N 32°25' W 090°60'4 8.7
2017-Sep-12 13:30N 32°27' W 091°05'4 7.9
2017-Sep-12 13:00N 32°30' W 091°07'4 8.1
2017-Sep-12 12:30N 32°34' W 091°07'4 8.2
2017-Sep-12 12:00N 32°38' W 091°09'7 3.9
2017-Sep-12 10:17N 32°45' W 091°09'  

Dump ship's entire track history